Time;durP1;ratioP1;P1;durP2;ratioP2;P2;SDS_P1;SDS_P2;PMS_P1;PMS_P2;Temp;Humidity;BMP_temperature;BMP_pressure;BME280_temperature;BME280_humidity;BME280_pressure;Samples;Min_cycle;Max_cycle;Signal;HPM_P1;HPM_P2
2022/05/25 00:00:47;;;;;;;1.50;0.88;;;17.50;44.10;;;15.39;48.27;100788.19;12243589;19;20031;-82
2022/05/25 00:04:50;;;;;;;0.88;0.88;;;17.50;44.10;;;15.20;48.60;100775.56;12239247;19;20010;-82
2022/05/25 00:08:52;;;;;;;1.08;1.08;;;17.20;44.00;;;15.12;48.45;100786.69;12242314;19;20026;-81
2022/05/25 00:12:54;;;;;;;0.88;0.88;;;17.10;44.10;;;14.83;48.50;100765.97;12241614;19;20086;-81
2022/05/25 00:16:55;;;;;;;0.68;0.68;;;17.00;44.10;;;14.76;48.66;100756.81;12235449;19;20018;-82
2022/05/25 00:20:57;;;;;;;0.90;0.90;;;17.10;44.30;;;14.93;48.69;100781.91;12235651;19;20030;-81
2022/05/25 00:24:59;;;;;;;1.00;1.00;;;17.10;44.50;;;15.14;48.79;100812.84;12230907;19;20322;-82
2022/05/25 00:29:04;;;;;;;0.80;0.80;;;17.10;44.60;;;15.18;48.83;100819.59;12235706;19;20010;-81
2022/05/25 00:33:07;;;;;;;0.85;0.85;;;17.00;44.80;;;14.95;48.83;100789.69;12235018;19;20014;-81
2022/05/25 00:37:09;;;;;;;1.00;1.00;;;17.10;44.70;;;15.08;48.66;100805.41;12240738;19;20103;-82
2022/05/25 00:41:10;;;;;;;1.45;1.05;;;17.10;44.80;;;14.97;48.82;100795.69;12240876;19;20026;-81
2022/05/25 00:45:13;;;;;;;0.75;0.75;;;17.10;44.80;;;14.91;49.08;100789.06;12240010;19;20014;-82
2022/05/25 00:49:30;;;;;;;0.93;0.93;;;16.90;44.70;;;14.90;48.98;100808.41;12240236;19;20111;-81
2022/05/25 00:53:34;;;;;;;0.88;0.88;;;16.90;44.70;;;14.83;48.86;100809.81;12238353;19;20037;-82
2022/05/25 00:57:45;;;;;;;0.93;0.93;;;17.00;44.50;;;14.70;49.01;100788.00;12235093;19;20011;-81
2022/05/25 01:01:48;;;;;;;0.80;0.80;;;16.80;44.70;;;14.75;49.12;100802.47;12230225;19;20043;-82
2022/05/25 01:06:24;;;;;;;0.85;0.85;;;16.80;44.50;;;14.70;49.17;100796.72;12238204;19;20463;-81
2022/05/25 01:11:04;;;;;;;1.70;1.00;;;16.70;44.70;;;14.64;49.17;100802.41;12237254;19;20014;-82
2022/05/25 01:15:21;;;;;;;3.47;1.00;;;16.80;44.70;;;14.75;49.05;100838.44;12238920;19;20010;-81
2022/05/25 01:20:18;;;;;;;1.05;1.05;;;16.70;44.80;;;14.71;49.00;100847.47;12232515;19;20078;-81
2022/05/25 01:25:14;;;;;;;1.63;0.93;;;16.70;44.80;;;14.56;49.03;100839.75;12237653;19;20041;-81
2022/05/25 01:29:22;;;;;;;1.15;1.05;;;16.60;44.70;;;14.47;49.13;100850.84;12238325;19;20007;-81
2022/05/25 01:33:45;;;;;;;0.80;0.80;;;16.50;44.40;;;14.34;49.15;100855.28;12229209;19;20021;-81
2022/05/25 01:38:36;;;;;;;0.90;0.90;;;16.40;44.60;;;14.18;49.03;100852.88;12236751;19;20022;-81
2022/05/25 01:42:46;;;;;;;0.80;0.80;;;16.30;44.60;;;13.88;49.30;100826.88;12236709;19;20019;-81
2022/05/25 01:47:09;;;;;;;0.68;0.68;;;16.30;44.70;;;13.97;49.65;100856.97;12238347;19;20018;-81
2022/05/25 01:51:20;;;;;;;0.70;0.70;;;16.10;44.80;;;13.64;49.47;100817.13;12238146;19;20010;-81
2022/05/25 01:55:28;;;;;;;1.00;0.90;;;16.00;45.00;;;13.83;49.61;100863.97;12233022;19;20017;-81
2022/05/25 01:59:30;;;;;;;0.70;0.70;;;16.00;44.90;;;13.72;49.45;100859.44;12237231;19;20019;-81
2022/05/25 02:08:11;;;;;;;0.88;0.88;;;15.70;44.80;;;13.42;50.01;100861.41;12243252;19;20014;-80
2022/05/25 02:13:04;;;;;;;0.82;0.80;;;15.70;45.10;;;13.28;49.72;100851.81;12250280;19;20011;-81
2022/05/25 02:17:47;;;;;;;1.02;0.90;;;15.60;45.10;;;13.26;49.68;100848.47;12249208;19;20036;-81
2022/05/25 02:21:55;;;;;;;0.80;0.80;;;15.50;45.20;;;13.03;49.94;100837.63;12249940;19;20424;-81
2022/05/25 02:26:29;;;;;;;1.02;0.73;;;15.40;44.90;;;12.70;50.05;100790.81;12248396;19;20044;-81
2022/05/25 02:30:39;;;;;;;1.08;1.08;;;15.30;45.20;;;13.15;50.00;100874.50;12248869;19;20130;-80
2022/05/25 02:34:47;;;;;;;0.95;0.95;;;15.20;45.30;;;13.11;50.13;100859.91;12245748;19;20625;-80
2022/05/25 02:38:49;;;;;;;1.02;1.00;;;15.20;45.50;;;13.02;49.88;100858.72;12242883;19;20002;-81
2022/05/25 02:42:51;;;;;;;0.80;0.80;;;15.10;45.30;;;12.92;49.91;100855.00;12247826;19;20374;-80
2022/05/25 02:46:53;;;;;;;0.98;0.98;;;15.10;45.20;;;12.82;50.12;100866.03;12242351;19;20019;-80
2022/05/25 02:50:54;;;;;;;0.80;0.80;;;15.10;45.30;;;12.77;50.13;100860.25;12249339;19;20081;-81
2022/05/25 02:54:56;;;;;;;0.90;0.90;;;15.10;45.70;;;12.75;50.24;100853.44;12243238;19;20010;-80
2022/05/25 02:58:58;;;;;;;1.38;0.75;;;14.90;45.80;;;13.01;50.28;100883.25;12244019;19;20070;-81
2022/05/25 03:02:59;;;;;;;0.90;0.90;;;15.00;45.90;;;12.99;50.29;100872.88;12244940;19;20029;-80
2022/05/25 03:07:01;;;;;;;1.08;0.98;;;15.00;46.10;;;12.76;50.33;100840.22;12246622;19;20046;-80
2022/05/25 03:11:04;;;;;;;1.00;1.00;;;15.10;46.10;;;12.93;50.56;100861.91;12245851;19;19999;-80
2022/05/25 03:15:06;;;;;;;0.80;0.80;;;14.90;46.10;;;13.01;50.49;100880.63;12240947;19;20018;-80
2022/05/25 03:19:08;;;;;;;1.27;1.17;;;15.00;46.20;;;13.01;50.49;100889.31;12243385;19;20014;-80
2022/05/25 03:23:10;;;;;;;1.05;0.98;;;15.10;46.30;;;13.06;50.67;100910.00;12242896;19;20028;-80
2022/05/25 03:27:12;;;;;;;1.10;1.00;;;14.80;46.30;;;13.03;50.68;100916.28;12244173;19;20341;-80
2022/05/25 03:31:15;;;;;;;1.27;1.17;;;15.00;46.40;;;13.04;50.64;100925.00;12244550;19;20027;-80
2022/05/25 03:35:16;;;;;;;2.08;1.10;;;15.00;46.40;;;12.65;50.80;100865.41;12240756;19;20467;-80
2022/05/25 03:39:18;;;;;;;0.88;0.88;;;14.90;46.40;;;13.09;50.94;100936.03;12244588;19;20021;-80
2022/05/25 03:43:20;;;;;;;1.00;0.88;;;15.10;46.60;;;13.14;50.77;100922.66;12245768;19;20042;-80
2022/05/25 03:47:22;;;;;;;1.05;1.00;;;15.10;46.80;;;12.64;50.86;100820.03;12243898;19;20360;-81
2022/05/25 03:51:24;;;;;;;1.10;1.00;;;15.20;47.00;;;13.31;50.99;100911.94;12244626;19;20018;-80
2022/05/25 03:55:26;;;;;;;1.15;1.10;;;15.20;47.10;;;13.40;51.08;100927.13;12239434;19;20077;-81
2022/05/25 03:59:27;;;;;;;0.90;0.90;;;15.30;47.20;;;13.46;51.16;100928.50;12243047;19;20010;-81
2022/05/25 04:03:29;;;;;;;1.88;1.17;;;15.50;47.30;;;13.58;51.16;100943.44;12227974;19;20014;-80
2022/05/25 04:07:30;;;;;;;1.13;1.00;;;15.50;47.40;;;13.65;51.17;100947.38;12235055;19;20609;-80
2022/05/25 04:11:32;;;;;;;1.02;0.90;;;15.60;47.50;;;13.25;51.25;100876.44;12235782;19;20092;-81
2022/05/25 04:15:35;;;;;;;1.00;1.00;;;15.60;47.50;;;13.60;51.24;100935.47;12220414;19;20010;-80
2022/05/25 04:19:38;;;;;;;1.00;1.00;;;15.70;47.50;;;13.47;51.41;100923.16;12237838;19;20108;-81
2022/05/25 04:23:40;;;;;;;0.93;0.93;;;15.50;47.50;;;13.59;51.56;100947.78;12234833;19;20090;-81
2022/05/25 04:27:45;;;;;;;1.02;1.02;;;15.60;47.60;;;13.49;51.59;100933.56;12242107;19;20013;-80
2022/05/25 04:31:46;;;;;;;1.20;1.10;;;15.50;47.70;;;13.65;51.54;100951.78;12236849;19;20044;-80
2022/05/25 04:35:48;;;;;;;1.08;1.08;;;15.70;48.10;;;13.63;51.69;100937.91;12238251;19;20011;-80
2022/05/25 04:39:50;;;;;;;1.00;1.00;;;15.70;47.90;;;13.83;51.72;100958.47;12241305;19;20006;-81
2022/05/25 04:43:51;;;;;;;1.27;1.17;;;15.80;48.20;;;13.92;51.84;100954.41;12235941;19;20129;-81
2022/05/25 04:47:59;;;;;;;1.30;1.20;;;15.90;48.30;;;14.06;52.10;100945.59;12236056;19;20022;-82
2022/05/25 04:52:02;;;;;;;7.78;1.15;;;15.90;48.70;;;14.21;51.93;100956.88;12238027;19;20014;-81
2022/05/25 05:00:25;;;;;;;1.75;1.10;;;16.20;48.80;;;14.18;52.00;100902.78;12230035;19;20014;-81
2022/05/25 05:04:29;;;;;;;0.90;0.90;;;16.30;49.00;;;14.58;52.12;100937.72;12219008;19;20018;-81
2022/05/25 05:08:32;;;;;;;3.17;1.53;;;16.50;49.30;;;14.71;52.09;100950.84;12226468;19;20074;-81
2022/05/25 05:12:33;;;;;;;1.63;1.52;;;16.60;49.30;;;14.78;52.31;100946.00;12222412;19;20029;-81
2022/05/25 05:16:34;;;;;;;4.85;1.20;;;16.70;49.50;;;14.96;52.39;100962.28;12204336;19;20031;-83
2022/05/25 05:20:48;;;;;;;1.35;1.20;;;16.90;49.80;;;15.07;52.47;100958.91;12208913;19;20802;-82
2022/05/25 05:24:50;;;;;;;1.10;1.00;;;17.20;50.00;;;15.07;52.38;100951.00;12207336;19;20014;-82
2022/05/25 05:28:53;;;;;;;1.55;1.17;;;17.00;49.90;;;15.20;52.55;100957.94;12210956;19;20499;-82
2022/05/25 05:32:54;;;;;;;1.13;1.02;;;17.30;50.20;;;15.37;52.62;100972.53;12209031;19;20380;-83
2022/05/25 05:37:15;;;;;;;1.40;1.30;;;17.30;50.20;;;15.56;53.03;100981.75;12208860;19;20625;-82
2022/05/25 05:41:21;;;;;;;1.60;1.50;;;17.40;50.40;;;15.67;52.68;100997.59;12211920;19;20495;-83
2022/05/25 05:45:30;;;;;;;1.52;1.42;;;17.50;49.80;;;15.67;52.76;100966.84;12213893;19;20021;-81
2022/05/25 05:49:32;;;;;;;1.80;1.40;;;17.60;50.20;;;15.90;52.79;100985.41;12224533;19;20014;-82
2022/05/25 05:53:34;;;;;;;1.60;1.38;;;17.60;50.00;;;15.50;52.69;100901.44;12220838;19;20019;-87
2022/05/25 05:57:37;;;;;;;1.65;1.55;;;17.80;50.00;;;16.06;52.77;100966.69;12228021;19;20050;-83
2022/05/25 06:01:44;;;;;;;1.48;1.38;;;18.00;50.00;;;16.37;52.71;100995.06;12229846;19;20634;-81
2022/05/25 06:05:45;;;;;;;1.92;1.83;;;18.10;49.70;;;16.37;52.66;100965.22;12230058;19;20015;-81
2022/05/25 06:09:47;;;;;;;2.00;1.90;;;18.30;49.40;;;16.59;52.65;100972.34;12230192;19;20118;-83
2022/05/25 06:13:49;;;;;;;1.85;1.42;;;18.30;49.20;;;16.59;52.40;100945.97;12227204;19;20014;-85
2022/05/25 06:22:15;;;;;;;2.38;2.00;;;18.50;48.70;;;17.27;52.13;100985.59;12220255;19;20020;-82
2022/05/25 06:26:20;;;;;;;2.40;2.08;;;19.00;48.20;;;17.47;51.71;101000.66;12218545;19;20018;-81
2022/05/25 06:30:22;;;;;;;1.87;1.77;;;19.20;47.80;;;17.60;51.44;100995.25;12222031;19;20014;-83
2022/05/25 06:34:23;;;;;;;1.65;1.55;;;19.30;47.30;;;17.75;51.52;101009.03;12218049;19;20777;-81
2022/05/25 06:38:25;;;;;;;3.05;2.08;;;19.50;47.10;;;17.87;51.30;101003.59;12208710;19;20013;-80
2022/05/25 06:42:27;;;;;;;2.30;2.10;;;19.50;46.80;;;17.98;50.91;101013.28;12220270;19;20047;-81
2022/05/25 06:46:28;;;;;;;2.58;2.03;;;19.80;46.40;;;18.16;50.73;101018.03;12220158;19;20030;-82
2022/05/25 06:50:30;;;;;;;3.75;2.13;;;19.80;46.70;;;18.08;50.76;100995.72;12218806;19;20054;-80
2022/05/25 06:54:31;;;;;;;2.75;2.22;;;20.10;46.20;;;18.39;50.56;101024.91;12219476;19;20070;-79
2022/05/25 06:58:33;;;;;;;2.70;2.25;;;20.00;45.70;;;18.36;50.33;101017.22;12229671;19;20025;-80
2022/05/25 07:02:35;;;;;;;2.30;2.17;;;20.00;45.40;;;18.44;50.20;101016.56;12226123;19;20042;-80
2022/05/25 07:06:38;;;;;;;2.40;2.20;;;20.10;45.20;;;18.56;50.12;101034.91;12232307;19;20770;-83
2022/05/25 07:10:45;;;;;;;1.90;1.80;;;20.40;45.20;;;18.71;49.88;101026.63;12232325;19;20032;-79
2022/05/25 07:14:47;;;;;;;3.60;3.30;;;20.40;44.70;;;18.76;49.58;101027.13;12226381;19;20015;-79
2022/05/25 07:18:49;;;;;;;2.08;1.75;;;20.40;44.60;;;18.70;49.72;101009.94;12229159;19;20010;-80
2022/05/25 07:22:51;;;;;;;2.25;2.15;;;20.70;44.70;;;18.87;49.62;101034.16;12232110;19;20090;-79
2022/05/25 07:26:52;;;;;;;2.05;1.95;;;20.80;44.50;;;18.92;49.41;101029.31;12232762;19;20479;-79
2022/05/25 07:31:01;;;;;;;1.75;1.65;;;20.60;44.00;;;19.04;49.47;101038.00;12231282;19;20562;-80
2022/05/25 07:35:04;;;;;;;2.67;1.45;;;20.80;44.40;;;19.16;49.54;101042.25;12228380;19;20018;-79
2022/05/25 07:39:11;;;;;;;2.95;1.50;;;21.00;44.20;;;19.21;48.90;101026.78;12226582;19;20014;-80
2022/05/25 07:43:18;;;;;;;1.75;1.65;;;21.30;43.90;;;19.40;48.82;101047.22;12229317;19;20035;-80
2022/05/25 07:47:20;;;;;;;1.55;1.45;;;21.20;43.70;;;19.50;48.85;101047.25;12230976;19;20078;-86
2022/05/25 07:51:25;;;;;;;1.75;1.65;;;21.30;43.80;;;19.60;48.52;101048.94;12204471;19;20015;-83
2022/05/25 07:55:27;;;;;;;;;;;21.50;43.50;;;19.74;48.58;101066.31;12209093;19;20674;-83
2022/05/25 07:59:29;;;;;;;4.47;1.35;;;21.50;43.90;;;19.76;48.61;101067.00;12212652;19;20519;-82
2022/05/25 08:07:51;;;;;;;1.38;1.27;;;21.70;43.30;;;19.86;48.38;101064.38;12213896;19;20066;-82
2022/05/25 08:11:53;;;;;;;1.83;1.60;;;21.70;42.90;;;19.92;48.57;101063.00;12215936;19;20030;-82
2022/05/25 08:15:55;;;;;;;1.40;1.30;;;21.80;42.80;;;20.04;48.28;101083.13;12218651;19;20014;-82
2022/05/25 08:19:56;;;;;;;1.30;1.20;;;21.90;42.60;;;19.92;47.97;101052.41;12229489;19;20038;-81
2022/05/25 08:23:58;;;;;;;1.45;1.33;;;21.90;42.40;;;20.05;48.02;101074.19;12226986;19;20081;-82
2022/05/25 08:28:01;;;;;;;1.50;1.40;;;22.20;42.60;;;20.04;47.60;101070.69;12227892;19;20014;-80
2022/05/25 08:32:03;;;;;;;1.85;1.40;;;22.00;42.50;;;19.91;47.87;101045.44;12228270;19;20014;-81
2022/05/25 08:36:07;;;;;;;1.50;1.40;;;22.00;42.40;;;19.96;47.70;101059.13;12219746;19;20472;-80
2022/05/25 08:40:20;;;;;;;2.00;1.35;;;22.00;42.40;;;20.06;47.59;101075.84;12228036;19;20088;-84
2022/05/25 08:44:24;;;;;;;1.83;1.40;;;22.10;42.50;;;19.97;47.68;101063.44;12224312;19;20547;-84
2022/05/25 08:48:28;;;;;;;1.83;1.70;;;21.90;42.20;;;20.18;47.67;101093.31;12226278;19;20364;-80
2022/05/25 08:52:29;;;;;;;2.38;1.42;;;21.90;42.30;;;20.23;47.91;101090.25;12223029;19;21020;-80
2022/05/25 08:56:45;;;;;;;3.40;1.80;;;22.10;42.40;;;19.92;47.64;101041.78;12225633;19;20015;-80
2022/05/25 09:00:50;;;;;;;1.63;1.52;;;22.10;42.30;;;20.22;47.38;101077.97;12226922;19;20354;-79
2022/05/25 09:05:06;;;;;;;1.90;1.60;;;22.10;42.30;;;20.26;47.43;101077.56;12221650;19;20018;-80
2022/05/25 09:09:30;;;;;;;1.83;1.50;;;22.20;42.30;;;20.47;47.61;101098.66;12223101;19;20395;-80
2022/05/25 09:13:42;;;;;;;1.77;1.65;;;22.20;42.70;;;20.52;47.14;101083.16;12225061;19;20014;-81
2022/05/25 09:18:06;;;;;;;1.73;1.58;;;22.30;42.40;;;20.74;47.31;101086.50;12214526;19;20010;-81
2022/05/25 09:22:16;;;;;;;1.17;1.17;;;22.50;42.80;;;20.93;47.43;101090.94;12232896;19;20014;-85
2022/05/25 09:26:17;;;;;;;1.80;1.55;;;22.60;42.50;;;21.10;47.02;101087.53;12230634;19;20074;-81
2022/05/25 09:30:20;;;;;;;1.20;1.10;;;22.80;42.10;;;21.17;46.72;101093.09;12236841;19;20014;-79
2022/05/25 09:34:37;;;;;;;1.35;1.25;;;22.80;42.00;;;21.16;46.66;101078.16;12232753;19;20022;-82
2022/05/25 09:39:05;;;;;;;1.42;0.90;;;23.00;41.70;;;21.30;46.39;101088.28;12231308;19;20036;-82
2022/05/25 09:43:12;;;;;;;1.10;1.05;;;23.00;41.30;;;21.30;46.24;101077.66;12234021;19;20010;-78
2022/05/25 09:47:46;;;;;;;1.58;1.00;;;23.20;41.10;;;21.49;46.25;101082.09;12233370;19;20046;-81
2022/05/25 09:51:52;;;;;;;1.20;1.15;;;23.20;41.10;;;21.69;45.93;101076.72;12234137;19;20484;-82
2022/05/25 09:56:09;;;;;;;1.35;1.17;;;23.50;41.10;;;21.87;45.55;101072.22;12233290;19;20102;-81
2022/05/25 10:00:32;;;;;;;2.45;1.10;;;23.50;41.00;;;22.06;45.33;101069.47;12235965;19;20014;-82
2022/05/25 10:04:55;;;;;;;1.23;1.10;;;23.70;40.70;;;22.09;45.16;101058.53;12233293;19;20011;-81
2022/05/25 10:09:10;;;;;;;2.75;0.90;;;23.80;40.60;;;22.33;45.08;101065.06;12233170;19;20021;-81
2022/05/25 10:13:26;;;;;;;2.40;0.98;;;23.80;40.50;;;22.42;45.18;101053.50;12233815;19;20010;-82
2022/05/25 10:17:36;;;;;;;;;;;24.10;40.10;;;22.72;45.94;101072.72;12228962;19;20583;-81
2022/05/25 10:21:39;;;;;;;0.63;0.63;;;24.30;40.90;;;22.87;45.15;101084.47;12232718;19;20300;-81
2022/05/25 10:25:57;;;;;;;0.45;0.45;;;24.40;39.30;;;22.84;44.55;101058.13;12229838;19;20038;-82
2022/05/25 10:39:29;;;;;;;0.70;0.70;;;24.60;38.40;;;23.12;43.67;101058.00;12218265;19;20515;-81
2022/05/25 10:43:31;;;;;;;1.05;0.82;;;24.80;38.70;;;23.15;43.14;101049.69;12223158;19;20425;-81
2022/05/25 10:47:57;;;;;;;2.38;0.70;;;24.80;38.30;;;23.12;42.80;101060.69;12223196;19;20018;-81
2022/05/25 10:52:32;;;;;;;0.80;0.60;;;24.90;38.00;;;22.93;43.15;101037.72;12226610;19;20010;-81
2022/05/25 10:57:17;;;;;;;0.50;0.50;;;24.80;37.70;;;22.97;43.17;101063.91;12220451;19;20010;-81
2022/05/25 11:01:53;;;;;;;0.65;0.65;;;24.80;37.70;;;22.81;43.38;101055.78;12223349;19;20018;-81
2022/05/25 11:06:25;;;;;;;0.90;0.80;;;24.70;37.90;;;22.58;43.50;101050.16;12223569;19;20090;-81
2022/05/25 11:10:54;;;;;;;1.60;0.70;;;24.60;39.10;;;22.52;44.63;101077.38;12225893;19;20018;-81
2022/05/25 11:15:55;;;;;;;1.40;0.73;;;24.50;40.70;;;22.29;44.56;101061.88;12226981;19;20019;-81
2022/05/25 11:20:33;;;;;;;0.60;0.60;;;24.30;40.80;;;22.07;45.23;101049.00;12230602;19;20024;-81
2022/05/25 11:25:03;;;;;;;2.35;0.80;;;24.10;41.30;;;22.10;45.12;101060.19;12223410;19;20018;-80
2022/05/25 11:29:36;;;;;;;1.83;0.90;;;24.00;41.30;;;22.16;45.16;101049.91;12226023;19;20671;-81
2022/05/25 11:34:04;;;;;;;0.80;0.80;;;24.00;41.90;;;22.22;44.91;101033.38;12223728;19;20015;-80
2022/05/25 11:38:29;;;;;;;0.60;0.60;;;24.00;40.90;;;22.22;45.08;101020.91;12224718;19;20006;-81
2022/05/25 11:43:08;;;;;;;0.68;0.68;;;24.20;41.10;;;22.33;44.53;101035.78;12225165;19;20487;-80
2022/05/25 11:47:52;;;;;;;0.55;0.55;;;24.10;40.40;;;22.43;44.77;101044.53;12237878;19;20014;-83
2022/05/25 11:52:22;;;;;;;1.65;0.65;;;24.10;40.20;;;22.46;44.19;101030.06;12240543;19;20390;-79
2022/05/25 11:57:10;;;;;;;1.20;0.88;;;24.10;39.70;;;22.46;44.04;101022.09;12237843;19;20022;-84
2022/05/25 12:01:43;;;;;;;0.70;0.50;;;24.20;39.60;;;22.52;44.00;101032.97;12240658;19;20015;-80
2022/05/25 12:06:47;;;;;;;0.70;0.70;;;24.30;39.90;;;22.48;44.40;101034.25;12235945;19;20010;-80
2022/05/25 12:11:07;;;;;;;0.47;0.40;;;24.30;39.80;;;22.36;44.18;101046.16;12240434;19;20504;-80
2022/05/25 12:15:24;;;;;;;0.65;0.60;;;24.20;39.50;;;22.22;44.13;101052.00;12237336;19;20014;-80
2022/05/25 12:19:30;;;;;;;2.10;1.02;;;24.10;39.20;;;22.03;44.44;101091.03;12239301;19;20475;-80
2022/05/25 12:24:00;;;;;;;0.52;0.52;;;24.00;40.30;;;21.62;44.70;101040.06;12237566;19;20015;-81
2022/05/25 12:28:03;;;;;;;0.70;0.70;;;23.80;40.60;;;21.48;45.50;101037.09;12240525;19;20014;-81
2022/05/25 12:32:07;;;;;;;0.50;0.50;;;23.60;41.60;;;21.52;46.06;101057.03;12239427;19;20015;-80
2022/05/25 12:36:10;;;;;;;0.70;0.65;;;23.50;42.80;;;21.35;46.03;101016.97;12237157;19;20485;-80
2022/05/25 12:40:14;;;;;;;0.57;0.57;;;23.40;43.30;;;21.64;46.58;101054.03;12239063;19;20014;-81
2022/05/25 12:49:09;;;;;;;0.55;0.50;;;23.40;43.30;;;21.58;46.39;101029.91;12236449;19;20018;-80
2022/05/25 12:53:30;;;;;;;0.45;0.35;;;23.40;43.90;;;21.72;46.32;101033.88;12233753;19;20022;-82
2022/05/25 12:57:50;;;;;;;0.50;0.50;;;23.40;42.80;;;21.60;46.43;100993.34;12233889;19;20476;-80
2022/05/25 13:02:20;;;;;;;1.35;0.70;;;23.50;43.30;;;21.91;46.04;101022.25;12237640;19;20018;-81
2022/05/25 13:06:37;;;;;;;4.80;0.40;;;23.50;42.90;;;22.03;46.00;101021.88;12236097;19;20018;-81
2022/05/25 13:10:39;;;;;;;1.33;0.65;;;23.60;42.50;;;22.19;45.86;101023.88;12235471;19;20027;-81
2022/05/25 13:14:40;;;;;;;0.40;0.40;;;23.70;41.90;;;22.30;45.67;101014.81;12229253;19;20038;-82
2022/05/25 13:18:55;;;;;;;0.98;0.60;;;23.80;42.00;;;22.42;45.14;101010.94;12232786;19;20018;-82
2022/05/25 13:23:08;;;;;;;0.52;0.40;;;23.90;41.30;;;22.09;44.75;100952.13;12233939;19;20014;-86
2022/05/25 13:27:16;;;;;;;0.40;0.40;;;24.00;40.40;;;22.43;44.92;101020.56;12231957;19;20015;-84
2022/05/25 13:31:47;;;;;;;0.65;0.60;;;24.10;40.10;;;22.36;44.82;101024.88;12235473;19;20023;-80
2022/05/25 13:36:14;;;;;;;1.35;0.70;;;24.10;39.90;;;22.28;44.76;101024.81;12216148;19;20078;-81
2022/05/25 13:40:17;;;;;;;1.20;0.47;;;24.10;39.90;;;22.23;44.63;101024.41;12234315;19;20014;-82
2022/05/25 13:44:25;;;;;;;3.22;0.73;;;24.00;39.60;;;22.17;44.12;101022.31;12230945;19;20512;-82
2022/05/25 13:48:26;;;;;;;0.82;0.60;;;23.90;39.50;;;21.83;44.51;100991.09;12234183;19;20010;-81
2022/05/25 13:52:34;;;;;;;1.10;0.60;;;24.00;39.60;;;21.73;44.31;101017.75;12230749;19;20014;-81
2022/05/25 13:56:37;;;;;;;1.67;0.43;;;23.90;39.60;;;21.70;44.43;101057.94;12230644;19;20040;-81
2022/05/25 14:00:46;;;;;;;2.90;0.50;;;23.80;39.80;;;21.20;44.64;101048.50;12232666;19;20014;-81
2022/05/25 14:04:50;;;;;;;0.68;0.40;;;23.60;39.80;;;21.11;45.26;101086.53;12236663;19;20014;-81
2022/05/25 14:13:37;;;;;;;0.77;0.40;;;23.00;40.80;;;20.41;45.46;101054.09;12241808;19;20075;-80
2022/05/25 14:17:39;;;;;;;0.38;0.38;;;22.80;40.80;;;20.41;45.78;101067.34;12238120;19;20094;-80
2022/05/25 14:21:46;;;;;;;0.75;0.50;;;22.60;41.30;;;20.40;45.75;101064.84;12246139;19;20030;-81
2022/05/25 14:26:04;;;;;;;0.85;0.70;;;22.30;41.10;;;20.30;45.84;101043.63;12241455;19;20010;-80
2022/05/25 14:30:24;;;;;;;0.50;0.50;;;22.30;41.80;;;20.51;45.90;101043.47;12242846;19;20049;-80
2022/05/25 14:34:27;;;;;;;2.08;0.52;;;22.30;41.50;;;20.45;45.58;101007.72;12238811;19;20021;-80
2022/05/25 14:38:37;;;;;;;0.73;0.40;;;22.10;41.50;;;20.82;45.59;101036.19;12237671;19;20040;-80
2022/05/25 14:42:55;;;;;;;0.45;0.43;;;22.40;42.00;;;20.96;45.04;101037.56;12240193;19;20577;-80
2022/05/25 14:46:57;;;;;;;0.30;0.30;;;22.50;40.90;;;21.08;44.98;101038.19;12243038;19;20018;-80
2022/05/25 14:51:01;;;;;;;0.68;0.40;;;22.60;40.90;;;21.20;44.76;101032.56;12240667;19;20034;-80
2022/05/25 14:55:32;;;;;;;1.10;0.40;;;22.70;41.10;;;21.34;44.95;101033.91;12239596;19;20002;-80
2022/05/25 14:59:42;;;;;;;0.38;0.30;;;22.90;41.20;;;21.49;44.61;101039.56;12240993;19;20022;-79
2022/05/25 15:03:51;;;;;;;0.55;0.50;;;23.00;40.90;;;21.57;44.42;101031.69;12238575;19;20459;-80
2022/05/25 15:07:56;;;;;;;0.40;0.40;;;23.00;40.50;;;21.54;44.85;101013.41;12239766;19;20604;-80
2022/05/25 15:12:17;;;;;;;0.65;0.45;;;23.10;40.90;;;21.56;44.74;101000.81;12239573;19;20527;-80
2022/05/25 15:20:47;;;;;;;0.30;0.30;;;23.30;40.70;;;21.65;44.46;101001.72;12233103;19;20365;-80
2022/05/25 15:25:01;;;;;;;0.50;0.50;;;23.40;40.70;;;21.60;44.90;100996.88;12233368;19;20011;-80
2022/05/25 15:29:22;;;;;;;0.45;0.40;;;23.30;40.80;;;21.67;44.82;100998.91;12239479;19;20047;-80
2022/05/25 15:33:28;;;;;;;0.45;0.40;;;23.20;40.80;;;21.56;45.10;100992.81;12235810;19;20014;-80
2022/05/25 15:37:31;;;;;;;1.00;0.40;;;23.40;41.20;;;21.62;45.15;100986.91;12234718;19;20007;-80
2022/05/25 15:41:33;;;;;;;1.27;0.40;;;23.30;41.10;;;21.79;44.69;100997.69;12240839;19;20494;-80
2022/05/25 15:45:37;;;;;;;0.40;0.40;;;23.20;41.10;;;21.86;44.77;100999.59;12238067;19;20087;-80
2022/05/25 15:49:42;;;;;;;0.50;0.50;;;23.50;41.30;;;21.67;44.84;100951.06;12230729;19;20463;-80
2022/05/25 15:53:43;;;;;;;0.45;0.45;;;23.50;41.10;;;21.96;44.59;100990.75;12232866;19;20014;-80
2022/05/25 15:57:49;;;;;;;0.50;0.50;;;23.50;41.00;;;21.94;44.71;100972.25;12225880;19;20007;-80
2022/05/25 16:01:56;;;;;;;0.47;0.40;;;23.60;40.50;;;22.10;44.17;100985.69;12232369;19;20011;-80
2022/05/25 16:05:58;;;;;;;0.52;0.50;;;23.70;40.30;;;21.92;44.29;100954.78;12235052;19;20014;-79
2022/05/25 16:09:59;;;;;;;0.55;0.52;;;23.70;39.50;;;22.13;43.93;100989.03;12236789;19;20022;-79
2022/05/25 16:14:02;;;;;;;0.73;0.50;;;23.80;39.20;;;22.22;43.54;101009.44;12238945;19;20025;-79
2022/05/25 16:18:04;;;;;;;0.50;0.50;;;23.90;39.10;;;22.07;43.76;100980.69;12237228;19;20011;-79
2022/05/25 16:22:06;;;;;;;1.45;0.50;;;23.90;39.50;;;21.92;43.38;100944.16;12238807;19;20464;-79
2022/05/25 16:26:09;;;;;;;1.67;0.70;;;23.90;39.00;;;22.14;43.34;100974.75;12237042;19;20021;-79
2022/05/25 16:30:11;;;;;;;2.40;0.50;;;23.90;39.20;;;22.21;43.12;100991.81;12239258;19;20491;-79
2022/05/25 16:34:13;;;;;;;0.52;0.52;;;24.00;38.90;;;22.30;43.37;101020.13;12237589;19;20437;-79
2022/05/25 16:38:15;;;;;;;1.15;0.60;;;23.90;38.70;;;22.30;43.40;101014.81;12236018;19;20010;-79
2022/05/25 16:42:17;;;;;;;0.68;0.65;;;23.90;38.80;;;22.18;43.13;100995.59;12237828;19;20364;-79
2022/05/25 16:46:21;;;;;;;1.02;0.60;;;23.90;38.70;;;22.30;43.42;101014.81;12238762;19;20046;-79
2022/05/25 16:50:34;;;;;;;0.70;0.70;;;24.00;38.90;;;22.20;43.05;101001.63;12284827;19;20338;-79
2022/05/25 16:54:35;;;;;;;0.45;0.45;;;24.10;38.90;;;22.24;43.16;101020.75;12287646;19;20037;-79
2022/05/25 16:58:37;;;;;;;1.45;0.55;;;24.00;38.80;;;22.25;42.92;101015.31;12297433;19;20020;-79
2022/05/25 17:02:39;;;;;;;0.70;0.63;;;24.00;38.90;;;22.08;43.33;100990.31;12294570;19;20017;-80
2022/05/25 17:06:40;;;;;;;1.65;0.70;;;24.00;39.00;;;22.27;42.98;101029.25;12295327;19;20010;-80
2022/05/25 17:10:42;;;;;;;0.60;0.60;;;24.00;38.70;;;22.08;42.77;100995.66;12292280;19;20022;-80
2022/05/25 17:14:44;;;;;;;0.60;0.60;;;23.90;38.70;;;21.87;42.84;100961.41;12288409;19;20068;-80
2022/05/25 17:23:14;;;;;;;0.50;0.50;;;24.00;38.80;;;22.26;42.81;101018.78;12294146;19;20031;-79
2022/05/25 17:27:16;;;;;;;0.50;0.50;;;24.00;38.60;;;22.10;43.07;100988.34;12294901;19;20085;-80
2022/05/25 17:31:18;;;;;;;1.85;0.40;;;24.00;38.80;;;22.22;42.81;101015.56;12295183;19;20017;-80
2022/05/25 17:35:19;;;;;;;0.52;0.50;;;23.90;38.80;;;22.05;42.59;100985.31;12291723;19;20081;-79
2022/05/25 17:43:41;;;;;;;0.95;0.95;;;23.80;38.30;;;22.21;42.73;101026.38;12292071;19;20057;-80
2022/05/25 17:47:43;;;;;;;0.52;0.50;;;23.90;38.40;;;22.10;42.81;101022.09;12287965;19;20034;-80
2022/05/25 17:51:47;;;;;;;0.50;0.50;;;24.10;38.50;;;22.13;42.58;101026.28;12292895;19;20018;-80
2022/05/25 17:55:49;;;;;;;0.77;0.50;;;23.90;38.60;;;22.16;42.50;101025.97;12290759;19;20014;-79